Happy Valley, OR

2:57 PM PST on February 12, 2016 (GMT -0800)
Mr. Lightning | | Change Station
CLOSE
Current Station
Personal Weather Station
Location: Damascus, OR
Elevation: 600 ft
Nearby Weather Stations

Elev 600 ft 45.43 °N, 122.42 °W | Updated 15 seconds ago

Rain
Rain
51.3 °F
Feels Like 51.3 °F
N
5.0
Wind Variable Wind from WNW
Gusts 9.0 mph

Today
High -- | Low -- °F
--% Chance of Precip.
Yesterday
High -- | Low -- °F
Precip. -- in
Pressure 30.19 in
Visibility 8.0 miles
Clouds Mostly Cloudy 8000 ft
Overcast 10000 ft
Dew Point 49 °F
Humidity 93%
Rainfall 0.23 in
Snow Depth Not available.
7:16 AM 5:31 PM
Waxing Crescent, 24% visible
METAR KTTD 122253Z 05003KT 8SM BKN080 OVC100 11/08 A3019 RMK AO2 RAB09E24 SLP222 P0000 T01060083
Pressure 30.19 in
Visibility 8.0 miles
Clouds Mostly Cloudy 8000 ft
Overcast 10000 ft
Dew Point 49 °F
Humidity 93%
Rainfall 0.23 in
Snow Depth Not available.
7:16 AM 5:31 PM
Waxing Crescent, 24% visible
METAR KTTD 122253Z 05003KT 8SM BKN080 OVC100 11/08 A3019 RMK AO2 RAB09E24 SLP222 P0000 T01060083

10-Day Weather Forecast

Almanac

Astronomy

Feb. 12, 2016 Rise Set
Actual Time
Civil Twilight
Nautical Twilight
Astronomical Twilight
Moon
Length of Visible Light
Length of Day
Tomorrow will be .
, % of the Moon is Illuminated

Today's Extremes

State Highs State Lows

Community

WunderPhotos

Upload Photos

1,892,424 photos uploaded!

WunderBlog® & News

Nearby

Air Quality

  Air Quality AQ Index Pollutant
Not available.

Snow Depth

Station Depth Elevation

Earthquake Activity

City Distance Mag. Time & Date
Minimum magnitude displayed is 2.5.

Coastal Water Temperatures

Place Temperature

Stations

Nearby Weather Stations

Station Location Temp. Windchill Dew Point Humidity Wind Precip. Elev Updated Type
                   

Watches & Warnings

There are currently no watches in effect.